Time;durP1;ratioP1;P1;durP2;ratioP2;P2;SDS_P1;SDS_P2;PMS_P1;PMS_P2;Temp;Humidity;BMP_temperature;BMP_pressure;BME280_temperature;BME280_humidity;BME280_pressure;Samples;Min_cycle;Max_cycle;Signal;HPM_P1;HPM_P2
2022/05/16 00:00:35;;;;;;;;;;;;;;;;;;5056886;28;20336;-32
2022/05/16 00:03:01;;;;;;;;;;;;;;;;;;5057035;28;19909;-28
2022/05/16 00:05:27;;;;;;;;;;;;;;;;;;5056849;28;20374;-30
2022/05/16 00:07:53;;;;;;;;;;;;;;;;;;5056911;28;19991;-28
2022/05/16 00:10:19;;;;;;;;;;;;;;;;;;5056774;28;19913;-30
2022/05/16 00:12:45;;;;;;;;;;;;;;;;;;5056643;28;19979;-28
2022/05/16 00:15:12;;;;;;;;;;;;;;;;;;5056482;28;19912;-30
2022/05/16 00:17:38;;;;;;;;;;;;;;;;;;5056427;28;19913;-27
2022/05/16 00:20:04;;;;;;;;;;;;;;;;;;5056455;28;19912;-33
2022/05/16 00:22:31;;;;;;;;;;;;;;;;;;5056456;28;20229;-29
2022/05/16 00:24:57;;;;;;;;;;;;;;;;;;5056930;28;19961;-35
2022/05/16 00:27:23;;;;;;;;;;;;;;;;;;5056623;28;19921;-34
2022/05/16 00:29:49;;;;;;;;;;;;;;;;;;5056323;28;20379;-30
2022/05/16 00:32:17;;;;;;;;;;;;;;;;;;5056247;28;20244;-29
2022/05/16 00:34:43;;;;;;;;;;;;;;;;;;5056178;28;19917;-29
2022/05/16 00:37:09;;;;;;;;;;;;;;;;;;5056136;28;20275;-31
2022/05/16 00:39:35;;;;;;;;;;;;;;;;;;5055951;28;20006;-27
2022/05/16 00:42:01;;;;;;;;;;;;;;;;;;5055991;28;20380;-31
2022/05/16 00:44:27;;;;;;;;;;;;;;;;;;5056235;28;19908;-26
2022/05/16 00:46:53;;;;;;;;;;;;;;;;;;5056002;28;19916;-29
2022/05/16 00:49:19;;;;;;;;;;;;;;;;;;5055944;28;20233;-26
2022/05/16 00:51:45;;;;;;;;;;;;;;;;;;5055922;28;19925;-29
2022/05/16 00:54:11;;;;;;;;;;;;;;;;;;5055776;28;19909;-32
2022/05/16 00:56:37;;;;;;;;;;;;;;;;;;5055005;28;19916;-31
2022/05/16 00:59:03;;;;;;;;;;;;;;;;;;5055651;28;20319;-31
2022/05/16 01:06:59;;;;;;;;;;;;;;;;;;5055596;28;19924;-31
2022/05/16 01:09:25;;;;;;;;;;;;;;;;;;5055757;28;20331;-27
2022/05/16 01:11:51;;;;;;;;;;;;;;;;;;5055379;28;19962;-26
2022/05/16 01:14:17;;;;;;;;;;;;;;;;;;5055362;28;20352;-28
2022/05/16 01:16:43;;;;;;;;;;;;;;;;;;5056071;28;20042;-25
2022/05/16 01:19:09;;;;;;;;;;;;;;;;;;5055229;28;20220;-25
2022/05/16 01:21:35;;;;;;;;;;;;;;;;;;5055214;28;19912;-28
2022/05/16 01:24:01;;;;;;;;;;;;;;;;;;5055402;28;19931;-28
2022/05/16 01:26:27;;;;;;;;;;;;;;;;;;5055419;28;19976;-27
2022/05/16 01:28:53;;;;;;;;;;;;;;;;;;5054259;28;20405;-30
2022/05/16 01:31:19;;;;;;;;;;;;;;;;;;5055187;28;20286;-31
2022/05/16 01:33:45;;;;;;;;;;;;;;;;;;5054111;28;19908;-28
2022/05/16 01:36:11;;;;;;;;;;;;;;;;;;5055483;28;19912;-28
2022/05/16 01:38:37;;;;;;;;;;;;;;;;;;5055020;28;20298;-31
2022/05/16 01:41:03;;;;;;;;;;;;;;;;;;5055358;28;19923;-27
2022/05/16 01:43:29;;;;;;;;;;;;;;;;;;5054941;28;19912;-33
2022/05/16 01:45:55;;;;;;;;;;;;;;;;;;5055229;28;19917;-26
2022/05/16 01:48:21;;;;;;;;;;;;;;;;;;5055177;28;20345;-28
2022/05/16 01:50:47;;;;;;;;;;;;;;;;;;5054844;28;19913;-28
2022/05/16 01:53:13;;;;;;;;;;;;;;;;;;5055092;28;20026;-29
2022/05/16 01:55:39;;;;;;;;;;;;;;;;;;5054665;28;20352;-30
2022/05/16 01:58:05;;;;;;;;;;;;;;;;;;5054720;28;19986;-33
2022/05/16 02:00:31;;;;;;;;;;;;;;;;;;5055084;28;20009;-28
2022/05/16 02:02:57;;;;;;;;;;;;;;;;;;5054735;28;20293;-27
2022/05/16 02:05:23;;;;;;;;;;;;;;;;;;5055011;28;20259;-31
2022/05/16 02:07:52;;;;;;;;;;;;;;;;;;5054251;28;19917;-28
2022/05/16 02:10:18;;;;;;;;;;;;;;;;;;5054299;28;19909;-28
2022/05/16 02:12:44;;;;;;;;;;;;;;;;;;5054603;28;19986;-28
2022/05/16 02:15:10;;;;;;;;;;;;;;;;;;5054895;28;19909;-27
2022/05/16 02:17:37;;;;;;;;;;;;;;;;;;5054778;28;19924;-32
2022/05/16 02:20:03;;;;;;;;;;;;;;;;;;5054874;28;19913;-32
2022/05/16 02:25:13;;;;;;;;;;;;;;;;;;5054635;28;19921;-27
2022/05/16 02:27:39;;;;;;;;;;;;;;;;;;5054437;28;20005;-30
2022/05/16 02:30:05;;;;;;;;;;;;;;;;;;5054673;28;20339;-29
2022/05/16 02:32:31;;;;;;;;;;;;;;;;;;5054258;28;20019;-29
2022/05/16 02:34:57;;;;;;;;;;;;;;;;;;5054641;28;20013;-31
2022/05/16 02:37:23;;;;;;;;;;;;;;;;;;5054351;28;19917;-34
2022/05/16 02:39:49;;;;;;;;;;;;;;;;;;5054360;28;19912;-30
2022/05/16 02:42:15;;;;;;;;;;;;;;;;;;5054553;28;20005;-32
2022/05/16 02:44:41;;;;;;;;;;;;;;;;;;5054556;28;19949;-28
2022/05/16 02:47:09;;;;;;;;;;;;;;;;;;5054295;28;20011;-31
2022/05/16 02:49:35;;;;;;;;;;;;;;;;;;5054551;28;19924;-26
2022/05/16 02:52:01;;;;;;;;;;;;;;;;;;5054111;28;19921;-29
2022/05/16 02:54:27;;;;;;;;;;;;;;;;;;5054265;28;19916;-28
2022/05/16 02:56:53;;;;;;;;;;;;;;;;;;5054526;28;19960;-31
2022/05/16 02:59:19;;;;;;;;;;;;;;;;;;5054134;28;19967;-29
2022/05/16 03:01:45;;;;;;;;;;;;;;;;;;5054136;28;19912;-28
2022/05/16 03:04:11;;;;;;;;;;;;;;;;;;5054306;28;19920;-27
2022/05/16 03:06:37;;;;;;;;;;;;;;;;;;5054100;28;19913;-28
2022/05/16 03:09:03;;;;;;;;;;;;;;;;;;5054160;28;20004;-31
2022/05/16 03:11:30;;;;;;;;;;;;;;;;;;5054317;28;20303;-32
2022/05/16 03:13:56;;;;;;;;;;;;;;;;;;5054011;28;19916;-28
2022/05/16 03:16:22;;;;;;;;;;;;;;;;;;5054282;28;19912;-29
2022/05/16 03:18:48;;;;;;;;;;;;;;;;;;5052995;28;19912;-32
2022/05/16 03:21:15;;;;;;;;;;;;;;;;;;5056729;28;19925;-29
2022/05/16 03:23:41;;;;;;;;;;;;;;;;;;5057328;28;19987;-32
2022/05/16 03:26:07;;;;;;;;;;;;;;;;;;5057507;28;19947;-32
2022/05/16 03:28:33;;;;;;;;;;;;;;;;;;5057458;28;19917;-32
2022/05/16 03:31:01;;;;;;;;;;;;;;;;;;5056492;28;20007;-28
2022/05/16 03:33:27;;;;;;;;;;;;;;;;;;5057565;28;20019;-28
2022/05/16 03:35:55;;;;;;;;;;;;;;;;;;5057340;28;19927;-31
2022/05/16 03:41:06;;;;;;;;;;;;;;;;;;5057163;28;19920;-25
2022/05/16 03:43:32;;;;;;;;;;;;;;;;;;5056895;28;19919;-27
2022/05/16 03:45:58;;;;;;;;;;;;;;;;;;5056911;28;19913;-31
2022/05/16 03:48:24;;;;;;;;;;;;;;;;;;5056832;28;20313;-26
2022/05/16 03:50:50;;;;;;;;;;;;;;;;;;5056903;28;19916;-28
2022/05/16 03:53:16;;;;;;;;;;;;;;;;;;5055617;28;20265;-29
2022/05/16 03:55:42;;;;;;;;;;;;;;;;;;5056336;28;19924;-27
2022/05/16 03:58:08;;;;;;;;;;;;;;;;;;5056696;28;19917;-30
2022/05/16 04:03:17;;;;;;;;;;;;;;;;;;5449093;22;20259;-20
2022/05/16 04:05:43;;;;;;;;;;;;;;;;;;5048981;28;20250;-20
2022/05/16 04:08:09;;;;;;;;;;;;;;;;;;5055699;28;19996;-20
2022/05/16 04:10:35;;;;;;;;;;;;;;;;;;5055431;28;19948;-20
2022/05/16 04:13:01;;;;;;;;;;;;;;;;;;5055232;28;19913;-20
2022/05/16 04:15:27;;;;;;;;;;;;;;;;;;5056621;28;19913;-20
2022/05/16 04:17:53;;;;;;;;;;;;;;;;;;5055382;28;19921;-20
2022/05/16 04:20:19;;;;;;;;;;;;;;;;;;5056368;28;19952;-21
2022/05/16 04:22:45;;;;;;;;;;;;;;;;;;5056503;28;20355;-20
2022/05/16 04:25:11;;;;;;;;;;;;;;;;;;5056493;28;19924;-20
2022/05/16 04:27:38;;;;;;;;;;;;;;;;;;5054965;28;19951;-19
2022/05/16 04:30:04;;;;;;;;;;;;;;;;;;5056356;28;20026;-20
2022/05/16 04:32:30;;;;;;;;;;;;;;;;;;5054982;28;19995;-20
2022/05/16 04:34:56;;;;;;;;;;;;;;;;;;5056460;28;20003;-19
2022/05/16 04:37:22;;;;;;;;;;;;;;;;;;5055935;28;19908;-20
2022/05/16 04:39:48;;;;;;;;;;;;;;;;;;5056324;28;19917;-20
2022/05/16 04:44:59;;;;;;;;;;;;;;;;;;5056004;28;19920;-20
2022/05/16 04:47:26;;;;;;;;;;;;;;;;;;5054899;28;19917;-20
2022/05/16 04:49:52;;;;;;;;;;;;;;;;;;5055756;28;19912;-21
2022/05/16 04:52:18;;;;;;;;;;;;;;;;;;5055968;28;19920;-21
2022/05/16 04:54:47;;;;;;;;;;;;;;;;;;5054768;28;19996;-21
2022/05/16 04:57:13;;;;;;;;;;;;;;;;;;5055895;28;19940;-21
2022/05/16 04:59:40;;;;;;;;;;;;;;;;;;5055626;28;20351;-21
2022/05/16 05:02:06;;;;;;;;;;;;;;;;;;5055305;28;19935;-20
2022/05/16 05:04:32;;;;;;;;;;;;;;;;;;5055816;28;20378;-19
2022/05/16 05:06:58;;;;;;;;;;;;;;;;;;5055255;28;19913;-21
2022/05/16 05:09:24;;;;;;;;;;;;;;;;;;5055075;28;19966;-20
2022/05/16 05:14:35;;;;;;;;;;;;;;;;;;5055453;28;19927;-20
2022/05/16 05:17:01;;;;;;;;;;;;;;;;;;5055657;28;20300;-21
2022/05/16 05:19:27;;;;;;;;;;;;;;;;;;5054959;28;19916;-20
2022/05/16 05:21:53;;;;;;;;;;;;;;;;;;5055142;28;20374;-20
2022/05/16 05:24:19;;;;;;;;;;;;;;;;;;5055098;28;20071;-21
2022/05/16 05:26:46;;;;;;;;;;;;;;;;;;5054915;28;19924;-20
2022/05/16 05:29:12;;;;;;;;;;;;;;;;;;5054910;28;19909;-20
2022/05/16 05:31:41;;;;;;;;;;;;;;;;;;5054757;28;19913;-20
2022/05/16 05:34:08;;;;;;;;;;;;;;;;;;5055270;28;19916;-21
2022/05/16 05:36:34;;;;;;;;;;;;;;;;;;5054762;28;19999;-20
2022/05/16 05:39:07;;;;;;;;;;;;;;;;;;5055712;28;19917;-22
2022/05/16 05:41:33;;;;;;;;;;;;;;;;;;5057479;28;19917;-20
2022/05/16 05:44:01;;;;;;;;;;;;;;;;;;5056451;28;20361;-21
2022/05/16 05:46:29;;;;;;;;;;;;;;;;;;5057172;28;20402;-22
2022/05/16 05:48:56;;;;;;;;;;;;;;;;;;5056847;28;19917;-21
2022/05/16 05:51:24;;;;;;;;;;;;;;;;;;5057371;28;20335;-21
2022/05/16 05:53:52;;;;;;;;;;;;;;;;;;5056620;28;19913;-21
2022/05/16 05:56:20;;;;;;;;;;;;;;;;;;5056777;28;19962;-21
2022/05/16 05:58:47;;;;;;;;;;;;;;;;;;5055729;28;19956;-21
2022/05/16 06:01:15;;;;;;;;;;;;;;;;;;5056748;28;19916;-20
2022/05/16 06:03:43;;;;;;;;;;;;;;;;;;5055941;28;19921;-21
2022/05/16 06:06:09;;;;;;;;;;;;;;;;;;5057327;28;19919;-21
2022/05/16 06:08:37;;;;;;;;;;;;;;;;;;5056589;28;19908;-20
2022/05/16 06:11:07;;;;;;;;;;;;;;;;;;5056544;28;19953;-22
2022/05/16 06:13:35;;;;;;;;;;;;;;;;;;5055589;28;19924;-22
2022/05/16 06:16:05;;;;;;;;;;;;;;;;;;5053712;28;20322;-21
2022/05/16 06:18:36;;;;;;;;;;;;;;;;;;5054394;28;20000;-21
2022/05/16 06:21:03;;;;;;;;;;;;;;;;;;5054091;28;19921;-21
2022/05/16 06:23:34;;;;;;;;;;;;;;;;;;5053956;28;19912;-21
2022/05/16 06:26:01;;;;;;;;;;;;;;;;;;5053795;28;20351;-20
2022/05/16 06:28:37;;;;;;;;;;;;;;;;;;5053649;28;19970;-20
2022/05/16 06:31:05;;;;;;;;;;;;;;;;;;5052821;28;19913;-20
2022/05/16 06:33:47;;;;;;;;;;;;;;;;;;5053872;28;20359;-20
2022/05/16 06:36:16;;;;;;;;;;;;;;;;;;5054475;28;19920;-20
2022/05/16 06:38:45;;;;;;;;;;;;;;;;;;5053702;28;20347;-20
2022/05/16 06:41:18;;;;;;;;;;;;;;;;;;5061253;28;19935;-20
2022/05/16 06:43:51;;;;;;;;;;;;;;;;;;5061422;28;19917;-20
2022/05/16 06:49:02;;;;;;;;;;;;;;;;;;5061098;28;20247;-19
2022/05/16 06:51:28;;;;;;;;;;;;;;;;;;5054006;28;19936;-19
2022/05/16 06:53:55;;;;;;;;;;;;;;;;;;5054178;28;19960;-19
2022/05/16 06:56:21;;;;;;;;;;;;;;;;;;5057164;28;19923;-19
2022/05/16 06:58:47;;;;;;;;;;;;;;;;;;5057879;28;19916;-27
2022/05/16 07:01:13;;;;;;;;;;;;;;;;;;5056876;28;19913;-18
2022/05/16 07:03:42;;;;;;;;;;;;;;;;;;5057562;28;19921;-19
2022/05/16 07:06:08;;;;;;;;;;;;;;;;;;5058097;28;19912;-19
2022/05/16 07:08:34;;;;;;;;;;;;;;;;;;5057946;28;19913;-19
2022/05/16 07:11:00;;;;;;;;;;;;;;;;;;5057909;28;19909;-20
2022/05/16 07:13:26;;;;;;;;;;;;;;;;;;5056793;28;20302;-20
2022/05/16 07:15:52;;;;;;;;;;;;;;;;;;5056752;28;19970;-19
2022/05/16 07:18:18;;;;;;;;;;;;;;;;;;5057856;28;19916;-20
2022/05/16 07:20:45;;;;;;;;;;;;;;;;;;5057364;28;19909;-20
2022/05/16 07:23:15;;;;;;;;;;;;;;;;;;5057319;28;19948;-19
2022/05/16 07:28:27;;;;;;;;;;;;;;;;;;5057201;28;20386;-19
2022/05/16 07:30:53;;;;;;;;;;;;;;;;;;5057759;28;19912;-19
2022/05/16 07:33:19;;;;;;;;;;;;;;;;;;5056199;28;20013;-19
2022/05/16 07:35:50;;;;;;;;;;;;;;;;;;5056883;28;19912;-20
2022/05/16 07:38:16;;;;;;;;;;;;;;;;;;5056853;28;20007;-20
2022/05/16 07:40:43;;;;;;;;;;;;;;;;;;5057424;28;19912;-20
2022/05/16 07:43:13;;;;;;;;;;;;;;;;;;5056924;28;19955;-20
2022/05/16 07:45:42;;;;;;;;;;;;;;;;;;5056895;28;19909;-20
2022/05/16 07:48:13;;;;;;;;;;;;;;;;;;5055721;28;20354;-19
2022/05/16 07:50:41;;;;;;;;;;;;;;;;;;5056830;28;19919;-19
2022/05/16 07:53:11;;;;;;;;;;;;;;;;;;5056426;28;20311;-20
2022/05/16 07:55:38;;;;;;;;;;;;;;;;;;5057122;28;19909;-20
2022/05/16 07:58:06;;;;;;;;;;;;;;;;;;5055626;28;19917;-21
2022/05/16 08:00:44;;;;;;;;;;;;;;;;;;5055818;28;19912;-19
2022/05/16 08:03:11;;;;;;;;;;;;;;;;;;5056412;28;19921;-19
2022/05/16 08:05:45;;;;;;;;;;;;;;;;;;5056715;28;19913;-19
2022/05/16 08:10:58;;;;;;;;;;;;;;;;;;5056729;28;19955;-20
2022/05/16 08:13:31;;;;;;;;;;;;;;;;;;5056542;28;19913;-19
2022/05/16 08:21:42;;;;;;;;;;;;;;;;;;5057104;28;20408;-20
2022/05/16 08:29:40;;;;;;;;;;;;;;;;;;5057634;28;19925;-25
2022/05/16 08:32:09;;;;;;;;;;;;;;;;;;5057602;28;19992;-25
2022/05/16 08:34:36;;;;;;;;;;;;;;;;;;5057912;28;20331;-25
2022/05/16 08:40:06;;;;;;;;;;;;;;;;;;5058244;28;20015;-25
2022/05/16 08:42:33;;;;;;;;;;;;;;;;;;5056561;28;19919;-26
2022/05/16 08:44:59;;;;;;;;;;;;;;;;;;5054734;28;19913;-25
2022/05/16 08:47:25;;;;;;;;;;;;;;;;;;5054518;28;19954;-25
2022/05/16 08:49:52;;;;;;;;;;;;;;;;;;5054838;28;19917;-26
2022/05/16 08:52:34;;;;;;;;;;;;;;;;;;5053543;28;20007;-25
2022/05/16 08:55:03;;;;;;;;;;;;;;;;;;5053380;28;20053;-25
2022/05/16 08:57:30;;;;;;;;;;;;;;;;;;5053362;28;19999;-25
2022/05/16 09:00:09;;;;;;;;;;;;;;;;;;5054578;28;20010;-24
2022/05/16 09:02:36;;;;;;;;;;;;;;;;;;5057754;28;19919;-23
2022/05/16 09:05:08;;;;;;;;;;;;;;;;;;5060353;28;19924;-23
2022/05/16 09:07:36;;;;;;;;;;;;;;;;;;5061958;28;19999;-26
2022/05/16 09:10:15;;;;;;;;;;;;;;;;;;5057768;28;19931;-26
2022/05/16 09:12:42;;;;;;;;;;;;;;;;;;5056645;28;19924;-23
2022/05/16 09:15:12;;;;;;;;;;;;;;;;;;5056040;28;19920;-24
2022/05/16 09:17:39;;;;;;;;;;;;;;;;;;5055512;28;19928;-23
2022/05/16 09:20:10;;;;;;;;;;;;;;;;;;5054888;28;20061;-23
2022/05/16 09:31:31;;;;;;;;;;;;;;;;;;5054712;28;20010;-25
2022/05/16 09:36:56;;;;;;;;;;;;;;;;;;5054677;28;19923;-25
2022/05/16 09:44:50;;;;;;;;;;;;;;;;;;5051827;28;19943;-25
2022/05/16 09:47:24;;;;;;;;;;;;;;;;;;5054415;28;20247;-25
2022/05/16 09:52:45;;;;;;;;;;;;;;;;;;5054527;28;19967;-25
2022/05/16 09:55:12;;;;;;;;;;;;;;;;;;5054411;28;19913;-25
2022/05/16 09:57:38;;;;;;;;;;;;;;;;;;5054556;28;19917;-25
2022/05/16 10:00:05;;;;;;;;;;;;;;;;;;5053328;28;19912;-25
2022/05/16 10:02:32;;;;;;;;;;;;;;;;;;5054513;28;20271;-26
2022/05/16 10:04:58;;;;;;;;;;;;;;;;;;5054562;28;19909;-25
2022/05/16 10:07:26;;;;;;;;;;;;;;;;;;5054644;28;19913;-26
2022/05/16 10:09:53;;;;;;;;;;;;;;;;;;5054059;28;19920;-27
2022/05/16 10:12:31;;;;;;;;;;;;;;;;;;5054305;28;19955;-25
2022/05/16 10:14:58;;;;;;;;;;;;;;;;;;5054344;28;19912;-25
2022/05/16 10:17:29;;;;;;;;;;;;;;;;;;5054076;28;19913;-25
2022/05/16 10:19:59;;;;;;;;;;;;;;;;;;5056142;28;19936;-24
2022/05/16 10:22:26;;;;;;;;;;;;;;;;;;5056843;28;19936;-24
2022/05/16 10:24:55;;;;;;;;;;;;;;;;;;5056361;28;19944;-24
2022/05/16 10:27:28;;;;;;;;;;;;;;;;;;5056577;28;19913;-24
2022/05/16 10:29:55;;;;;;;;;;;;;;;;;;5056331;28;19912;-24
2022/05/16 10:35:10;;;;;;;;;;;;;;;;;;5061117;28;19932;-26
2022/05/16 10:37:38;;;;;;;;;;;;;;;;;;5061608;28;19909;-24
2022/05/16 10:40:11;;;;;;;;;;;;;;;;;;5060245;28;20011;-24
2022/05/16 10:42:38;;;;;;;;;;;;;;;;;;5060936;28;19991;-24
2022/05/16 10:45:07;;;;;;;;;;;;;;;;;;5059393;28;19920;-25
2022/05/16 10:47:35;;;;;;;;;;;;;;;;;;5061236;28;19995;-24
2022/05/16 10:50:06;;;;;;;;;;;;;;;;;;5061048;28;19916;-25
2022/05/16 10:52:35;;;;;;;;;;;;;;;;;;5059737;28;19951;-25
2022/05/16 10:55:04;;;;;;;;;;;;;;;;;;5059024;28;19992;-25
2022/05/16 10:57:35;;;;;;;;;;;;;;;;;;5059588;28;19913;-25
2022/05/16 11:00:09;;;;;;;;;;;;;;;;;;5059667;28;20060;-33
2022/05/16 11:02:49;;;;;;;;;;;;;;;;;;;;;
2022/05/16 11:22:23;;;;;;;;;;;;;;;;;;5060726;28;20258;-25
2022/05/16 11:24:50;;;;;;;;;;;;;;;;;;5057313;28;20008;-26
2022/05/16 11:27:27;;;;;;;;;;;;;;;;;;5057254;28;19912;-26
2022/05/16 11:29:53;;;;;;;;;;;;;;;;;;5057143;28;19937;-26
2022/05/16 11:32:19;;;;;;;;;;;;;;;;;;5057273;28;20295;-26
2022/05/16 11:34:46;;;;;;;;;;;;;;;;;;5056963;28;19909;-27
2022/05/16 11:37:13;;;;;;;;;;;;;;;;;;5057191;28;20003;-26
2022/05/16 11:39:39;;;;;;;;;;;;;;;;;;5056696;28;20019;-25
2022/05/16 11:42:07;;;;;;;;;;;;;;;;;;5056481;28;19913;-25
2022/05/16 11:44:34;;;;;;;;;;;;;;;;;;5056986;28;20290;-25
2022/05/16 11:47:00;;;;;;;;;;;;;;;;;;5056900;28;19925;-25
2022/05/16 11:49:27;;;;;;;;;;;;;;;;;;5056860;28;20000;-25
2022/05/16 11:54:48;;;;;;;;;;;;;;;;;;5056354;28;19923;-25
2022/05/16 12:00:37;;;;;;;;;;;;;;;;;;5056836;28;19939;-25
2022/05/16 12:02:54;;;;;;;;;;;;;;;;;;5053001;28;19913;-25
2022/05/16 12:05:24;;;;;;;;;;;;;;;;;;5056472;28;19909;-25
2022/05/16 12:07:57;;;;;;;;;;;;;;;;;;5055672;28;19938;-25
2022/05/16 12:10:23;;;;;;;;;;;;;;;;;;5055912;28;19914;-25
2022/05/16 12:12:52;;;;;;;;;;;;;;;;;;5057047;28;19917;-24
2022/05/16 12:15:32;;;;;;;;;;;;;;;;;;5059100;28;20007;-25
2022/05/16 12:20:51;;;;;;;;;;;;;;;;;;5059931;28;20023;-24
2022/05/16 12:23:19;;;;;;;;;;;;;;;;;;5059354;28;19962;-24
2022/05/16 12:25:47;;;;;;;;;;;;;;;;;;5058747;28;19915;-24
2022/05/16 12:28:19;;;;;;;;;;;;;;;;;;5058588;28;19912;-24
2022/05/16 12:30:47;;;;;;;;;;;;;;;;;;5058460;28;19913;-23
2022/05/16 12:33:16;;;;;;;;;;;;;;;;;;5041565;28;19988;-24
2022/05/16 12:35:44;;;;;;;;;;;;;;;;;;5058046;28;19909;-24
2022/05/16 12:38:11;;;;;;;;;;;;;;;;;;5058011;28;20014;-24
2022/05/16 12:40:39;;;;;;;;;;;;;;;;;;5040818;28;19909;-24
2022/05/16 12:43:07;;;;;;;;;;;;;;;;;;5040607;28;19912;-23
2022/05/16 12:45:35;;;;;;;;;;;;;;;;;;5058200;28;19974;-23
2022/05/16 12:48:04;;;;;;;;;;;;;;;;;;5057850;28;19913;-24
2022/05/16 12:50:33;;;;;;;;;;;;;;;;;;5040282;28;20016;-23
2022/05/16 12:53:03;;;;;;;;;;;;;;;;;;5039235;28;19913;-23
2022/05/16 12:55:31;;;;;;;;;;;;;;;;;;5058013;28;20308;-23
2022/05/16 12:57:59;;;;;;;;;;;;;;;;;;5039724;28;19913;-24
2022/05/16 13:00:28;;;;;;;;;;;;;;;;;;5040006;28;19919;-23
2022/05/16 13:02:58;;;;;;;;;;;;;;;;;;5058213;28;19913;-24
2022/05/16 13:05:30;;;;;;;;;;;;;;;;;;5058660;28;20000;-24
2022/05/16 13:08:05;;;;;;;;;;;;;;;;;;5057233;28;19913;-24
2022/05/16 13:13:25;;;;;;;;;;;;;;;;;;5059429;28;19923;-24
2022/05/16 13:15:53;;;;;;;;;;;;;;;;;;5040073;28;20243;-24
2022/05/16 13:18:29;;;;;;;;;;;;;;;;;;5057759;28;20259;-24
2022/05/16 13:20:58;;;;;;;;;;;;;;;;;;5056261;28;19916;-24
2022/05/16 13:23:28;;;;;;;;;;;;;;;;;;5056111;28;19987;-24
2022/05/16 13:31:36;;;;;;;;;;;;;;;;;;5057671;28;19923;-25
2022/05/16 13:34:04;;;;;;;;;;;;;;;;;;5056666;28;19974;-25
2022/05/16 13:36:33;;;;;;;;;;;;;;;;;;5058150;28;20380;-25
2022/05/16 13:39:01;;;;;;;;;;;;;;;;;;5057998;28;19925;-25
2022/05/16 13:41:45;;;;;;;;;;;;;;;;;;5057761;28;21175;-25
2022/05/16 13:44:16;;;;;;;;;;;;;;;;;;5056944;28;19920;-25
2022/05/16 13:46:43;;;;;;;;;;;;;;;;;;5056756;28;19912;-25
2022/05/16 13:49:12;;;;;;;;;;;;;;;;;;5056865;28;19916;-25
2022/05/16 13:51:40;;;;;;;;;;;;;;;;;;5057236;28;19935;-25
2022/05/16 13:54:08;;;;;;;;;;;;;;;;;;5057463;28;19913;-29
2022/05/16 13:56:35;;;;;;;;;;;;;;;;;;5057109;28;19909;-31
2022/05/16 13:59:04;;;;;;;;;;;;;;;;;;5056904;28;20276;-25
2022/05/16 14:01:31;;;;;;;;;;;;;;;;;;5057096;28;19936;-25
2022/05/16 14:04:02;;;;;;;;;;;;;;;;;;5057090;28;19923;-25
2022/05/16 14:06:30;;;;;;;;;;;;;;;;;;5055717;28;19943;-25
2022/05/16 14:08:57;;;;;;;;;;;;;;;;;;5057311;28;19980;-25
2022/05/16 14:11:24;;;;;;;;;;;;;;;;;;5055880;28;20263;-25
2022/05/16 14:13:54;;;;;;;;;;;;;;;;;;5057182;28;19913;-25
2022/05/16 14:16:20;;;;;;;;;;;;;;;;;;5056888;28;19920;-25
2022/05/16 14:18:49;;;;;;;;;;;;;;;;;;5056694;28;20348;-25
2022/05/16 14:21:16;;;;;;;;;;;;;;;;;;5056844;28;19913;-25
2022/05/16 14:23:43;;;;;;;;;;;;;;;;;;5056996;28;19947;-24
2022/05/16 14:26:10;;;;;;;;;;;;;;;;;;5055841;28;20307;-25
2022/05/16 14:28:38;;;;;;;;;;;;;;;;;;5056714;28;20023;-25
2022/05/16 14:31:06;;;;;;;;;;;;;;;;;;5056262;28;20294;-25
2022/05/16 14:33:34;;;;;;;;;;;;;;;;;;5057100;28;19912;-25
2022/05/16 14:36:03;;;;;;;;;;;;;;;;;;5056837;28;19920;-25
2022/05/16 14:38:31;;;;;;;;;;;;;;;;;;5055471;28;19921;-25
2022/05/16 14:40:59;;;;;;;;;;;;;;;;;;5057082;28;19913;-25
2022/05/16 14:43:26;;;;;;;;;;;;;;;;;;5055289;28;20336;-25
2022/05/16 14:48:38;;;;;;;;;;;;;;;;;;5056590;28;19935;-25
2022/05/16 14:51:06;;;;;;;;;;;;;;;;;;5057159;28;19909;-25
2022/05/16 14:53:33;;;;;;;;;;;;;;;;;;5056841;28;20055;-25
2022/05/16 14:56:00;;;;;;;;;;;;;;;;;;5056220;28;19936;-25
2022/05/16 14:58:27;;;;;;;;;;;;;;;;;;5056216;28;19912;-25
2022/05/16 15:06:27;;;;;;;;;;;;;;;;;;5056086;28;19919;-24
2022/05/16 15:08:55;;;;;;;;;;;;;;;;;;5055860;28;19923;-24
2022/05/16 15:11:22;;;;;;;;;;;;;;;;;;5056614;28;19959;-25
2022/05/16 15:13:50;;;;;;;;;;;;;;;;;;5055417;28;19912;-24
2022/05/16 15:16:18;;;;;;;;;;;;;;;;;;5055627;28;19908;-24
2022/05/16 15:18:46;;;;;;;;;;;;;;;;;;5057166;28;20011;-25
2022/05/16 15:21:14;;;;;;;;;;;;;;;;;;5057997;28;20286;-25
2022/05/16 15:23:41;;;;;;;;;;;;;;;;;;5058129;28;19940;-25
2022/05/16 15:26:08;;;;;;;;;;;;;;;;;;5059313;28;19960;-25
2022/05/16 15:28:36;;;;;;;;;;;;;;;;;;5057862;28;20383;-25
2022/05/16 15:31:03;;;;;;;;;;;;;;;;;;5057439;28;20056;-25
2022/05/16 15:33:30;;;;;;;;;;;;;;;;;;5058459;28;19923;-24
2022/05/16 15:35:57;;;;;;;;;;;;;;;;;;5059107;28;19924;-25
2022/05/16 15:38:24;;;;;;;;;;;;;;;;;;5059363;28;20343;-24
2022/05/16 15:40:51;;;;;;;;;;;;;;;;;;5058858;28;20251;-24
2022/05/16 15:43:18;;;;;;;;;;;;;;;;;;5059216;28;19913;-24
2022/05/16 15:45:44;;;;;;;;;;;;;;;;;;5056668;28;19908;-25
2022/05/16 15:48:11;;;;;;;;;;;;;;;;;;5056495;28;20254;-25
2022/05/16 15:50:38;;;;;;;;;;;;;;;;;;5058803;28;19994;-24
2022/05/16 15:53:06;;;;;;;;;;;;;;;;;;5059121;28;19908;-24
2022/05/16 15:55:33;;;;;;;;;;;;;;;;;;5059260;28;19913;-24
2022/05/16 15:58:00;;;;;;;;;;;;;;;;;;5057593;28;19908;-24
2022/05/16 16:00:27;;;;;;;;;;;;;;;;;;5057394;28;20366;-24
2022/05/16 16:02:54;;;;;;;;;;;;;;;;;;5059172;28;20248;-24
2022/05/16 16:10:51;;;;;;;;;;;;;;;;;;5059246;28;19920;-24
2022/05/16 16:13:19;;;;;;;;;;;;;;;;;;5057639;28;19912;-24
2022/05/16 16:15:46;;;;;;;;;;;;;;;;;;5058663;28;19909;-24
2022/05/16 16:18:12;;;;;;;;;;;;;;;;;;5057860;28;19966;-24
2022/05/16 16:20:42;;;;;;;;;;;;;;;;;;5058173;28;19927;-23
2022/05/16 16:23:08;;;;;;;;;;;;;;;;;;5057936;28;20335;-24
2022/05/16 16:25:38;;;;;;;;;;;;;;;;;;5057993;28;19955;-24
2022/05/16 16:28:06;;;;;;;;;;;;;;;;;;5057113;28;19916;-24
2022/05/16 16:30:33;;;;;;;;;;;;;;;;;;5056920;28;20273;-24
2022/05/16 16:33:00;;;;;;;;;;;;;;;;;;5058028;28;19909;-24
2022/05/16 16:35:27;;;;;;;;;;;;;;;;;;5057310;28;20338;-24
2022/05/16 16:37:56;;;;;;;;;;;;;;;;;;5057835;28;19956;-24
2022/05/16 16:40:23;;;;;;;;;;;;;;;;;;5057020;28;19955;-24
2022/05/16 16:42:49;;;;;;;;;;;;;;;;;;5056795;28;20008;-25
2022/05/16 16:45:16;;;;;;;;;;;;;;;;;;5057989;28;20235;-23
2022/05/16 16:47:45;;;;;;;;;;;;;;;;;;5057454;28;19913;-24
2022/05/16 16:50:15;;;;;;;;;;;;;;;;;;5058096;28;19917;-24
2022/05/16 16:58:12;;;;;;;;;;;;;;;;;;5057259;28;20026;-24
2022/05/16 17:00:39;;;;;;;;;;;;;;;;;;5056007;28;19913;-24
2022/05/16 17:03:07;;;;;;;;;;;;;;;;;;5056105;28;19940;-24
2022/05/16 17:05:38;;;;;;;;;;;;;;;;;;5056212;28;20297;-24
2022/05/16 17:08:04;;;;;;;;;;;;;;;;;;5056731;28;20252;-24
2022/05/16 17:10:46;;;;;;;;;;;;;;;;;;5056399;28;19920;-25
2022/05/16 17:13:14;;;;;;;;;;;;;;;;;;5056432;28;20309;-25
2022/05/16 17:15:42;;;;;;;;;;;;;;;;;;5057328;28;19966;-25
2022/05/16 17:18:09;;;;;;;;;;;;;;;;;;5055847;28;19920;-25
2022/05/16 17:20:35;;;;;;;;;;;;;;;;;;5055839;28;20312;-25
2022/05/16 17:23:04;;;;;;;;;;;;;;;;;;5056564;28;20228;-24
2022/05/16 17:25:32;;;;;;;;;;;;;;;;;;5057290;28;19909;-25
2022/05/16 17:27:59;;;;;;;;;;;;;;;;;;5056223;28;19928;-25
2022/05/16 17:30:26;;;;;;;;;;;;;;;;;;5056426;28;19913;-25
2022/05/16 17:32:53;;;;;;;;;;;;;;;;;;5056870;28;20193;-25
2022/05/16 17:35:22;;;;;;;;;;;;;;;;;;5055930;28;19979;-25
2022/05/16 17:37:48;;;;;;;;;;;;;;;;;;5057256;28;20354;-25
2022/05/16 17:40:17;;;;;;;;;;;;;;;;;;5056476;28;19948;-25
2022/05/16 17:42:44;;;;;;;;;;;;;;;;;;5056355;28;19967;-25
2022/05/16 17:45:11;;;;;;;;;;;;;;;;;;5056734;28;19913;-25
2022/05/16 17:47:38;;;;;;;;;;;;;;;;;;5056426;28;20271;-25
2022/05/16 17:50:05;;;;;;;;;;;;;;;;;;5056492;28;19909;-25
2022/05/16 17:52:33;;;;;;;;;;;;;;;;;;5056645;28;19949;-25
2022/05/16 17:55:00;;;;;;;;;;;;;;;;;;5055324;28;20303;-25
2022/05/16 17:57:26;;;;;;;;;;;;;;;;;;5056446;28;19986;-25
2022/05/16 17:59:53;;;;;;;;;;;;;;;;;;5056532;28;20279;-25
2022/05/16 18:02:21;;;;;;;;;;;;;;;;;;5055303;28;20308;-25
2022/05/16 18:04:49;;;;;;;;;;;;;;;;;;5055060;28;19913;-25
2022/05/16 18:07:16;;;;;;;;;;;;;;;;;;5056489;28;20411;-25
2022/05/16 18:09:45;;;;;;;;;;;;;;;;;;5056452;28;19908;-25
2022/05/16 18:14:57;;;;;;;;;;;;;;;;;;5056997;28;19999;-25
2022/05/16 18:17:24;;;;;;;;;;;;;;;;;;5055124;28;19913;-25
2022/05/16 18:19:54;;;;;;;;;;;;;;;;;;5054523;28;20018;-25
2022/05/16 18:22:21;;;;;;;;;;;;;;;;;;5056692;28;19913;-25
2022/05/16 18:24:48;;;;;;;;;;;;;;;;;;5055382;28;19909;-25
2022/05/16 18:27:15;;;;;;;;;;;;;;;;;;5056310;28;19972;-25
2022/05/16 18:29:42;;;;;;;;;;;;;;;;;;5055644;28;19935;-25
2022/05/16 18:32:08;;;;;;;;;;;;;;;;;;5056599;28;19972;-25
2022/05/16 18:34:37;;;;;;;;;;;;;;;;;;5056351;28;19909;-24
2022/05/16 18:37:04;;;;;;;;;;;;;;;;;;5056321;28;20426;-24
2022/05/16 18:39:33;;;;;;;;;;;;;;;;;;5055422;28;19916;-24
2022/05/16 18:52:59;;;;;;;;;;;;;;;;;;5060666;28;19970;-24
2022/05/16 18:55:26;;;;;;;;;;;;;;;;;;5060440;28;19955;-24
2022/05/16 18:58:00;;;;;;;;;;;;;;;;;;5059988;28;19913;-29
2022/05/16 19:00:27;;;;;;;;;;;;;;;;;;5059874;28;19913;-24